sensor_id;sensor_type;location;lat;lon;timestamp;P1;durP1;ratioP1;P2;durP2;ratioP2
44486;SDS011;30191;50.908;6.962;2024-01-10T00:01:31;14.02;;;8.75;;
44486;SDS011;30191;50.908;6.962;2024-01-10T00:03:56;15.63;;;9.00;;
44486;SDS011;30191;50.908;6.962;2024-01-10T00:06:22;16.42;;;9.43;;
44486;SDS011;30191;50.908;6.962;2024-01-10T00:08:48;19.35;;;9.93;;
44486;SDS011;30191;50.908;6.962;2024-01-10T00:11:14;16.88;;;9.02;;
44486;SDS011;30191;50.908;6.962;2024-01-10T00:13:40;23.83;;;10.90;;
44486;SDS011;30191;50.908;6.962;2024-01-10T00:16:06;16.55;;;9.85;;
44486;SDS011;30191;50.908;6.962;2024-01-10T00:18:31;16.92;;;9.82;;
44486;SDS011;30191;50.908;6.962;2024-01-10T00:20:58;22.08;;;11.68;;
44486;SDS011;30191;50.908;6.962;2024-01-10T00:23:24;20.13;;;11.00;;
44486;SDS011;30191;50.908;6.962;2024-01-10T00:25:50;17.15;;;10.23;;
44486;SDS011;30191;50.908;6.962;2024-01-10T00:28:16;19.30;;;10.18;;
44486;SDS011;30191;50.908;6.962;2024-01-10T00:30:43;18.23;;;9.98;;
44486;SDS011;30191;50.908;6.962;2024-01-10T00:33:09;17.52;;;9.98;;
44486;SDS011;30191;50.908;6.962;2024-01-10T00:35:34;15.52;;;10.05;;
44486;SDS011;30191;50.908;6.962;2024-01-10T00:38:00;19.63;;;10.40;;
44486;SDS011;30191;50.908;6.962;2024-01-10T00:40:26;19.92;;;11.13;;
44486;SDS011;30191;50.908;6.962;2024-01-10T00:42:51;18.75;;;10.48;;
44486;SDS011;30191;50.908;6.962;2024-01-10T00:45:17;19.10;;;10.07;;
44486;SDS011;30191;50.908;6.962;2024-01-10T00:47:42;15.65;;;10.07;;
44486;SDS011;30191;50.908;6.962;2024-01-10T00:50:08;16.33;;;9.63;;
44486;SDS011;30191;50.908;6.962;2024-01-10T00:52:34;16.00;;;9.57;;
44486;SDS011;30191;50.908;6.962;2024-01-10T00:55:00;17.42;;;10.05;;
44486;SDS011;30191;50.908;6.962;2024-01-10T00:57:25;16.92;;;10.00;;
44486;SDS011;30191;50.908;6.962;2024-01-10T00:59:51;21.02;;;10.88;;
44486;SDS011;30191;50.908;6.962;2024-01-10T01:02:17;18.30;;;10.38;;
44486;SDS011;30191;50.908;6.962;2024-01-10T01:04:42;17.30;;;10.45;;
44486;SDS011;30191;50.908;6.962;2024-01-10T01:07:08;18.20;;;10.15;;
44486;SDS011;30191;50.908;6.962;2024-01-10T01:09:34;17.65;;;10.57;;
44486;SDS011;30191;50.908;6.962;2024-01-10T01:12:00;17.90;;;10.05;;
44486;SDS011;30191;50.908;6.962;2024-01-10T01:14:25;17.30;;;10.02;;
44486;SDS011;30191;50.908;6.962;2024-01-10T01:16:51;17.17;;;10.45;;
44486;SDS011;30191;50.908;6.962;2024-01-10T01:19:17;20.25;;;10.48;;
44486;SDS011;30191;50.908;6.962;2024-01-10T01:21:42;18.52;;;10.85;;
44486;SDS011;30191;50.908;6.962;2024-01-10T01:24:08;16.55;;;10.10;;
44486;SDS011;30191;50.908;6.962;2024-01-10T01:26:34;18.55;;;10.73;;
44486;SDS011;30191;50.908;6.962;2024-01-10T01:28:59;19.17;;;10.25;;
44486;SDS011;30191;50.908;6.962;2024-01-10T01:31:25;17.25;;;10.05;;
44486;SDS011;30191;50.908;6.962;2024-01-10T01:33:51;23.13;;;10.68;;
44486;SDS011;30191;50.908;6.962;2024-01-10T01:36:17;17.67;;;10.57;;
44486;SDS011;30191;50.908;6.962;2024-01-10T01:38:42;20.08;;;11.13;;
44486;SDS011;30191;50.908;6.962;2024-01-10T01:41:08;17.67;;;10.52;;
44486;SDS011;30191;50.908;6.962;2024-01-10T01:43:34;19.00;;;11.23;;
44486;SDS011;30191;50.908;6.962;2024-01-10T01:46:00;20.70;;;11.48;;
44486;SDS011;30191;50.908;6.962;2024-01-10T01:48:27;20.70;;;10.80;;
44486;SDS011;30191;50.908;6.962;2024-01-10T01:50:54;21.77;;;11.27;;
44486;SDS011;30191;50.908;6.962;2024-01-10T01:53:23;20.48;;;10.52;;
44486;SDS011;30191;50.908;6.962;2024-01-10T01:55:49;19.45;;;10.60;;
44486;SDS011;30191;50.908;6.962;2024-01-10T01:58:15;18.58;;;10.73;;
44486;SDS011;30191;50.908;6.962;2024-01-10T02:00:41;17.95;;;9.88;;
44486;SDS011;30191;50.908;6.962;2024-01-10T02:03:08;20.38;;;10.70;;
44486;SDS011;30191;50.908;6.962;2024-01-10T02:05:34;17.10;;;10.57;;
44486;SDS011;30191;50.908;6.962;2024-01-10T02:08:01;18.50;;;10.30;;
44486;SDS011;30191;50.908;6.962;2024-01-10T02:10:27;18.67;;;10.65;;
44486;SDS011;30191;50.908;6.962;2024-01-10T02:12:53;23.10;;;11.00;;
44486;SDS011;30191;50.908;6.962;2024-01-10T02:15:18;20.48;;;11.60;;
44486;SDS011;30191;50.908;6.962;2024-01-10T02:17:44;21.08;;;11.45;;
44486;SDS011;30191;50.908;6.962;2024-01-10T02:22:41;17.48;;;10.45;;
44486;SDS011;30191;50.908;6.962;2024-01-10T02:25:10;22.02;;;11.27;;
44486;SDS011;30191;50.908;6.962;2024-01-10T02:27:37;20.13;;;10.75;;
44486;SDS011;30191;50.908;6.962;2024-01-10T02:30:03;21.95;;;11.43;;
44486;SDS011;30191;50.908;6.962;2024-01-10T02:32:30;20.50;;;11.73;;
44486;SDS011;30191;50.908;6.962;2024-01-10T02:34:56;20.70;;;10.93;;
44486;SDS011;30191;50.908;6.962;2024-01-10T02:37:22;19.35;;;10.65;;
44486;SDS011;30191;50.908;6.962;2024-01-10T02:39:48;17.48;;;10.30;;
44486;SDS011;30191;50.908;6.962;2024-01-10T02:42:14;17.13;;;10.43;;
44486;SDS011;30191;50.908;6.962;2024-01-10T02:44:40;19.35;;;10.55;;
44486;SDS011;30191;50.908;6.962;2024-01-10T02:47:06;22.10;;;10.85;;
44486;SDS011;30191;50.908;6.962;2024-01-10T02:49:32;17.83;;;10.40;;
44486;SDS011;30191;50.908;6.962;2024-01-10T02:51:58;21.10;;;10.13;;
44486;SDS011;30191;50.908;6.962;2024-01-10T02:54:24;17.80;;;10.23;;
44486;SDS011;30191;50.908;6.962;2024-01-10T02:56:49;15.75;;;9.70;;
44486;SDS011;30191;50.908;6.962;2024-01-10T02:59:15;16.70;;;9.77;;
44486;SDS011;30191;50.908;6.962;2024-01-10T03:01:40;17.38;;;9.35;;
44486;SDS011;30191;50.908;6.962;2024-01-10T03:04:06;17.48;;;9.25;;
44486;SDS011;30191;50.908;6.962;2024-01-10T03:06:32;16.13;;;9.55;;
44486;SDS011;30191;50.908;6.962;2024-01-10T03:08:57;15.60;;;8.77;;
44486;SDS011;30191;50.908;6.962;2024-01-10T03:11:23;15.55;;;8.43;;
44486;SDS011;30191;50.908;6.962;2024-01-10T03:13:49;15.90;;;9.15;;
44486;SDS011;30191;50.908;6.962;2024-01-10T03:16:27;15.60;;;8.70;;
44486;SDS011;30191;50.908;6.962;2024-01-10T03:18:53;16.85;;;9.18;;
44486;SDS011;30191;50.908;6.962;2024-01-10T03:21:18;17.02;;;9.07;;
44486;SDS011;30191;50.908;6.962;2024-01-10T03:23:49;16.10;;;8.25;;
44486;SDS011;30191;50.908;6.962;2024-01-10T03:26:15;15.10;;;7.95;;
44486;SDS011;30191;50.908;6.962;2024-01-10T03:28:41;17.05;;;9.20;;
44486;SDS011;30191;50.908;6.962;2024-01-10T03:31:06;14.25;;;8.82;;
44486;SDS011;30191;50.908;6.962;2024-01-10T03:33:32;18.63;;;8.68;;
44486;SDS011;30191;50.908;6.962;2024-01-10T03:35:58;13.73;;;8.25;;
44486;SDS011;30191;50.908;6.962;2024-01-10T03:38:23;15.32;;;8.50;;
44486;SDS011;30191;50.908;6.962;2024-01-10T03:40:49;14.70;;;8.13;;
44486;SDS011;30191;50.908;6.962;2024-01-10T03:43:14;13.73;;;8.90;;
44486;SDS011;30191;50.908;6.962;2024-01-10T03:45:41;18.63;;;8.80;;
44486;SDS011;30191;50.908;6.962;2024-01-10T03:48:07;13.48;;;8.45;;
44486;SDS011;30191;50.908;6.962;2024-01-10T03:50:33;15.75;;;8.82;;
44486;SDS011;30191;50.908;6.962;2024-01-10T03:52:59;14.90;;;9.10;;
44486;SDS011;30191;50.908;6.962;2024-01-10T03:55:24;16.90;;;9.10;;
44486;SDS011;30191;50.908;6.962;2024-01-10T03:57:50;13.30;;;8.15;;
44486;SDS011;30191;50.908;6.962;2024-01-10T04:00:16;12.57;;;8.25;;
44486;SDS011;30191;50.908;6.962;2024-01-10T04:02:42;15.55;;;7.72;;
44486;SDS011;30191;50.908;6.962;2024-01-10T04:05:08;13.27;;;7.88;;
44486;SDS011;30191;50.908;6.962;2024-01-10T04:07:35;19.25;;;8.77;;
44486;SDS011;30191;50.908;6.962;2024-01-10T04:10:01;15.52;;;8.45;;
44486;SDS011;30191;50.908;6.962;2024-01-10T04:12:28;13.35;;;8.10;;
44486;SDS011;30191;50.908;6.962;2024-01-10T04:14:53;11.18;;;7.70;;
44486;SDS011;30191;50.908;6.962;2024-01-10T04:17:19;15.75;;;8.48;;
44486;SDS011;30191;50.908;6.962;2024-01-10T04:19:45;13.20;;;8.27;;
44486;SDS011;30191;50.908;6.962;2024-01-10T04:22:10;13.95;;;8.07;;
44486;SDS011;30191;50.908;6.962;2024-01-10T04:24:36;13.55;;;8.57;;
44486;SDS011;30191;50.908;6.962;2024-01-10T04:27:02;15.10;;;7.93;;
44486;SDS011;30191;50.908;6.962;2024-01-10T04:29:28;14.93;;;8.13;;
44486;SDS011;30191;50.908;6.962;2024-01-10T04:31:53;12.95;;;8.15;;
44486;SDS011;30191;50.908;6.962;2024-01-10T04:34:19;14.45;;;8.02;;
44486;SDS011;30191;50.908;6.962;2024-01-10T04:36:45;13.10;;;7.90;;
44486;SDS011;30191;50.908;6.962;2024-01-10T04:39:10;16.55;;;9.10;;
44486;SDS011;30191;50.908;6.962;2024-01-10T04:41:36;15.00;;;8.40;;
44486;SDS011;30191;50.908;6.962;2024-01-10T04:44:01;12.18;;;7.75;;
44486;SDS011;30191;50.908;6.962;2024-01-10T04:46:27;13.27;;;8.25;;
44486;SDS011;30191;50.908;6.962;2024-01-10T04:48:53;12.93;;;7.88;;
44486;SDS011;30191;50.908;6.962;2024-01-10T04:51:19;14.07;;;8.68;;
44486;SDS011;30191;50.908;6.962;2024-01-10T04:53:44;14.68;;;8.48;;
44486;SDS011;30191;50.908;6.962;2024-01-10T04:56:10;13.85;;;8.32;;
44486;SDS011;30191;50.908;6.962;2024-01-10T04:58:36;14.82;;;8.35;;
44486;SDS011;30191;50.908;6.962;2024-01-10T05:01:02;15.43;;;8.27;;
44486;SDS011;30191;50.908;6.962;2024-01-10T05:03:27;15.10;;;8.68;;
44486;SDS011;30191;50.908;6.962;2024-01-10T05:05:53;15.27;;;8.82;;
44486;SDS011;30191;50.908;6.962;2024-01-10T05:08:19;13.55;;;8.10;;
44486;SDS011;30191;50.908;6.962;2024-01-10T05:10:47;16.92;;;8.60;;
44486;SDS011;30191;50.908;6.962;2024-01-10T05:13:13;17.33;;;8.63;;
44486;SDS011;30191;50.908;6.962;2024-01-10T05:15:39;15.80;;;8.07;;
44486;SDS011;30191;50.908;6.962;2024-01-10T05:18:04;13.95;;;8.48;;
44486;SDS011;30191;50.908;6.962;2024-01-10T05:20:30;15.60;;;8.75;;
44486;SDS011;30191;50.908;6.962;2024-01-10T05:22:57;14.68;;;8.23;;
44486;SDS011;30191;50.908;6.962;2024-01-10T05:25:24;20.77;;;7.90;;
44486;SDS011;30191;50.908;6.962;2024-01-10T05:27:50;12.10;;;8.20;;
44486;SDS011;30191;50.908;6.962;2024-01-10T05:30:15;12.50;;;8.00;;
44486;SDS011;30191;50.908;6.962;2024-01-10T05:32:43;15.30;;;8.15;;
44486;SDS011;30191;50.908;6.962;2024-01-10T05:35:09;15.32;;;8.30;;
44486;SDS011;30191;50.908;6.962;2024-01-10T05:37:35;19.50;;;8.80;;
44486;SDS011;30191;50.908;6.962;2024-01-10T05:40:01;12.68;;;7.80;;
44486;SDS011;30191;50.908;6.962;2024-01-10T05:42:29;12.68;;;8.13;;
44486;SDS011;30191;50.908;6.962;2024-01-10T05:44:55;16.52;;;9.00;;
44486;SDS011;30191;50.908;6.962;2024-01-10T05:47:20;15.32;;;8.82;;
44486;SDS011;30191;50.908;6.962;2024-01-10T05:49:46;14.13;;;9.00;;
44486;SDS011;30191;50.908;6.962;2024-01-10T05:52:12;14.90;;;8.85;;
44486;SDS011;30191;50.908;6.962;2024-01-10T05:54:38;12.57;;;8.30;;
44486;SDS011;30191;50.908;6.962;2024-01-10T05:57:04;15.23;;;8.35;;
44486;SDS011;30191;50.908;6.962;2024-01-10T05:59:29;14.27;;;8.07;;
44486;SDS011;30191;50.908;6.962;2024-01-10T06:01:56;16.38;;;7.80;;
44486;SDS011;30191;50.908;6.962;2024-01-10T06:04:22;11.25;;;7.75;;
44486;SDS011;30191;50.908;6.962;2024-01-10T06:06:48;17.23;;;7.57;;
44486;SDS011;30191;50.908;6.962;2024-01-10T06:09:13;16.48;;;8.88;;
44486;SDS011;30191;50.908;6.962;2024-01-10T06:11:41;15.88;;;7.82;;
44486;SDS011;30191;50.908;6.962;2024-01-10T06:14:07;13.95;;;8.25;;
44486;SDS011;30191;50.908;6.962;2024-01-10T06:16:32;13.32;;;8.10;;
44486;SDS011;30191;50.908;6.962;2024-01-10T06:18:58;14.05;;;8.38;;
44486;SDS011;30191;50.908;6.962;2024-01-10T06:21:24;13.55;;;8.23;;
44486;SDS011;30191;50.908;6.962;2024-01-10T06:23:50;14.93;;;7.93;;
44486;SDS011;30191;50.908;6.962;2024-01-10T06:26:16;12.90;;;8.15;;
44486;SDS011;30191;50.908;6.962;2024-01-10T06:28:41;13.75;;;8.55;;
44486;SDS011;30191;50.908;6.962;2024-01-10T06:31:07;16.27;;;8.20;;
44486;SDS011;30191;50.908;6.962;2024-01-10T06:33:33;14.40;;;8.50;;
44486;SDS011;30191;50.908;6.962;2024-01-10T06:35:59;13.95;;;8.55;;
44486;SDS011;30191;50.908;6.962;2024-01-10T06:38:24;14.32;;;8.82;;
44486;SDS011;30191;50.908;6.962;2024-01-10T06:40:50;17.85;;;9.00;;
44486;SDS011;30191;50.908;6.962;2024-01-10T06:43:16;15.48;;;8.93;;
44486;SDS011;30191;50.908;6.962;2024-01-10T06:45:42;13.02;;;8.77;;
44486;SDS011;30191;50.908;6.962;2024-01-10T06:48:08;20.55;;;9.93;;
44486;SDS011;30191;50.908;6.962;2024-01-10T06:50:34;13.95;;;9.07;;
44486;SDS011;30191;50.908;6.962;2024-01-10T06:52:59;18.10;;;10.52;;
44486;SDS011;30191;50.908;6.962;2024-01-10T06:55:25;16.65;;;10.18;;
44486;SDS011;30191;50.908;6.962;2024-01-10T06:57:51;15.60;;;9.10;;
44486;SDS011;30191;50.908;6.962;2024-01-10T07:00:19;15.05;;;9.02;;
44486;SDS011;30191;50.908;6.962;2024-01-10T07:02:47;15.15;;;8.82;;
44486;SDS011;30191;50.908;6.962;2024-01-10T07:05:14;16.00;;;8.65;;
44486;SDS011;30191;50.908;6.962;2024-01-10T07:07:40;17.33;;;8.52;;
44486;SDS011;30191;50.908;6.962;2024-01-10T07:10:06;16.33;;;8.70;;
44486;SDS011;30191;50.908;6.962;2024-01-10T07:12:33;15.63;;;9.45;;
44486;SDS011;30191;50.908;6.962;2024-01-10T07:14:59;14.90;;;8.85;;
44486;SDS011;30191;50.908;6.962;2024-01-10T07:17:24;20.15;;;9.05;;
44486;SDS011;30191;50.908;6.962;2024-01-10T07:19:50;17.67;;;9.20;;
44486;SDS011;30191;50.908;6.962;2024-01-10T07:22:16;21.02;;;9.05;;
44486;SDS011;30191;50.908;6.962;2024-01-10T07:24:43;15.65;;;8.70;;
44486;SDS011;30191;50.908;6.962;2024-01-10T07:27:09;17.55;;;10.13;;
44486;SDS011;30191;50.908;6.962;2024-01-10T07:29:34;17.13;;;9.27;;
44486;SDS011;30191;50.908;6.962;2024-01-10T07:32:00;18.98;;;9.85;;
44486;SDS011;30191;50.908;6.962;2024-01-10T07:34:26;14.90;;;9.27;;
44486;SDS011;30191;50.908;6.962;2024-01-10T07:36:51;19.35;;;9.52;;
44486;SDS011;30191;50.908;6.962;2024-01-10T07:39:19;30.50;;;13.80;;
44486;SDS011;30191;50.908;6.962;2024-01-10T07:41:44;17.77;;;10.00;;
44486;SDS011;30191;50.908;6.962;2024-01-10T07:44:10;13.63;;;8.68;;
44486;SDS011;30191;50.908;6.962;2024-01-10T07:46:37;15.52;;;9.25;;
44486;SDS011;30191;50.908;6.962;2024-01-10T07:49:05;24.30;;;9.75;;
44486;SDS011;30191;50.908;6.962;2024-01-10T07:51:31;14.55;;;9.20;;
44486;SDS011;30191;50.908;6.962;2024-01-10T07:53:57;18.00;;;8.80;;
44486;SDS011;30191;50.908;6.962;2024-01-10T07:56:24;17.17;;;9.35;;
44486;SDS011;30191;50.908;6.962;2024-01-10T07:58:50;18.45;;;9.63;;
44486;SDS011;30191;50.908;6.962;2024-01-10T08:01:17;22.02;;;9.68;;
44486;SDS011;30191;50.908;6.962;2024-01-10T08:03:42;19.60;;;10.18;;
44486;SDS011;30191;50.908;6.962;2024-01-10T08:06:08;16.55;;;9.18;;
44486;SDS011;30191;50.908;6.962;2024-01-10T08:08:35;17.58;;;9.68;;
44486;SDS011;30191;50.908;6.962;2024-01-10T08:11:01;21.08;;;9.88;;
44486;SDS011;30191;50.908;6.962;2024-01-10T08:13:27;75.53;;;13.38;;
44486;SDS011;30191;50.908;6.962;2024-01-10T08:15:53;32.03;;;12.35;;
44486;SDS011;30191;50.908;6.962;2024-01-10T08:18:19;24.08;;;10.05;;
44486;SDS011;30191;50.908;6.962;2024-01-10T08:20:45;18.98;;;8.65;;
44486;SDS011;30191;50.908;6.962;2024-01-10T08:23:10;20.27;;;9.93;;
44486;SDS011;30191;50.908;6.962;2024-01-10T08:25:36;18.05;;;8.68;;
44486;SDS011;30191;50.908;6.962;2024-01-10T08:28:03;17.85;;;8.88;;
44486;SDS011;30191;50.908;6.962;2024-01-10T08:30:29;17.45;;;8.60;;
44486;SDS011;30191;50.908;6.962;2024-01-10T08:32:54;18.20;;;9.48;;
44486;SDS011;30191;50.908;6.962;2024-01-10T08:35:20;20.38;;;10.02;;
44486;SDS011;30191;50.908;6.962;2024-01-10T08:37:45;14.40;;;8.68;;
44486;SDS011;30191;50.908;6.962;2024-01-10T08:40:11;16.38;;;8.95;;
44486;SDS011;30191;50.908;6.962;2024-01-10T08:42:40;15.82;;;9.18;;
44486;SDS011;30191;50.908;6.962;2024-01-10T08:45:07;15.73;;;9.35;;
44486;SDS011;30191;50.908;6.962;2024-01-10T08:47:34;17.77;;;8.52;;
44486;SDS011;30191;50.908;6.962;2024-01-10T08:50:04;17.35;;;9.48;;
44486;SDS011;30191;50.908;6.962;2024-01-10T08:52:33;19.90;;;8.38;;
44486;SDS011;30191;50.908;6.962;2024-01-10T08:55:00;16.95;;;8.88;;
44486;SDS011;30191;50.908;6.962;2024-01-10T08:57:25;16.73;;;9.13;;
44486;SDS011;30191;50.908;6.962;2024-01-10T08:59:52;18.35;;;9.00;;
44486;SDS011;30191;50.908;6.962;2024-01-10T09:02:18;19.70;;;9.45;;
44486;SDS011;30191;50.908;6.962;2024-01-10T09:04:44;20.23;;;10.98;;
44486;SDS011;30191;50.908;6.962;2024-01-10T09:07:10;18.48;;;9.45;;
44486;SDS011;30191;50.908;6.962;2024-01-10T09:09:35;15.40;;;8.68;;
44486;SDS011;30191;50.908;6.962;2024-01-10T09:12:01;18.20;;;9.18;;
44486;SDS011;30191;50.908;6.962;2024-01-10T09:14:28;18.48;;;9.50;;
44486;SDS011;30191;50.908;6.962;2024-01-10T09:16:53;27.88;;;10.70;;
44486;SDS011;30191;50.908;6.962;2024-01-10T09:19:19;19.92;;;9.93;;
44486;SDS011;30191;50.908;6.962;2024-01-10T09:21:45;16.40;;;9.27;;
44486;SDS011;30191;50.908;6.962;2024-01-10T09:24:10;18.60;;;8.75;;
44486;SDS011;30191;50.908;6.962;2024-01-10T09:26:39;20.83;;;10.65;;
44486;SDS011;30191;50.908;6.962;2024-01-10T09:29:06;17.88;;;10.13;;
44486;SDS011;30191;50.908;6.962;2024-01-10T09:31:31;24.92;;;9.85;;
44486;SDS011;30191;50.908;6.962;2024-01-10T09:33:57;16.67;;;9.50;;
44486;SDS011;30191;50.908;6.962;2024-01-10T09:36:23;20.90;;;9.32;;
44486;SDS011;30191;50.908;6.962;2024-01-10T09:38:49;15.73;;;8.85;;
44486;SDS011;30191;50.908;6.962;2024-01-10T09:41:15;17.50;;;9.68;;
44486;SDS011;30191;50.908;6.962;2024-01-10T09:43:43;16.95;;;9.65;;
44486;SDS011;30191;50.908;6.962;2024-01-10T09:46:09;17.30;;;9.40;;
44486;SDS011;30191;50.908;6.962;2024-01-10T09:48:35;13.90;;;8.85;;
44486;SDS011;30191;50.908;6.962;2024-01-10T09:51:01;15.10;;;8.98;;
44486;SDS011;30191;50.908;6.962;2024-01-10T09:53:26;18.23;;;9.63;;
44486;SDS011;30191;50.908;6.962;2024-01-10T09:55:53;17.05;;;9.90;;
44486;SDS011;30191;50.908;6.962;2024-01-10T09:58:24;18.85;;;9.57;;
44486;SDS011;30191;50.908;6.962;2024-01-10T10:00:51;18.25;;;9.32;;
44486;SDS011;30191;50.908;6.962;2024-01-10T10:03:17;23.25;;;10.02;;
44486;SDS011;30191;50.908;6.962;2024-01-10T10:05:44;19.02;;;10.05;;
44486;SDS011;30191;50.908;6.962;2024-01-10T10:08:10;16.38;;;9.55;;
44486;SDS011;30191;50.908;6.962;2024-01-10T10:10:38;20.33;;;10.23;;
44486;SDS011;30191;50.908;6.962;2024-01-10T10:13:09;18.30;;;9.25;;
44486;SDS011;30191;50.908;6.962;2024-01-10T10:15:51;21.48;;;10.38;;
44486;SDS011;30191;50.908;6.962;2024-01-10T10:18:23;28.25;;;12.73;;
44486;SDS011;30191;50.908;6.962;2024-01-10T10:20:49;22.42;;;10.70;;
44486;SDS011;30191;50.908;6.962;2024-01-10T10:23:30;24.10;;;11.38;;
44486;SDS011;30191;50.908;6.962;2024-01-10T10:25:56;19.42;;;10.60;;
44486;SDS011;30191;50.908;6.962;2024-01-10T10:28:22;24.13;;;11.23;;
44486;SDS011;30191;50.908;6.962;2024-01-10T10:30:53;23.10;;;11.27;;
44486;SDS011;30191;50.908;6.962;2024-01-10T10:33:20;28.98;;;12.73;;
44486;SDS011;30191;50.908;6.962;2024-01-10T10:35:46;23.48;;;10.95;;
44486;SDS011;30191;50.908;6.962;2024-01-10T10:38:12;29.38;;;12.65;;
44486;SDS011;30191;50.908;6.962;2024-01-10T10:40:37;20.88;;;11.02;;
44486;SDS011;30191;50.908;6.962;2024-01-10T10:43:03;23.00;;;12.15;;
44486;SDS011;30191;50.908;6.962;2024-01-10T10:45:29;23.92;;;12.95;;
44486;SDS011;30191;50.908;6.962;2024-01-10T10:47:58;23.88;;;11.88;;
44486;SDS011;30191;50.908;6.962;2024-01-10T10:50:28;20.20;;;11.90;;
44486;SDS011;30191;50.908;6.962;2024-01-10T10:53:02;20.90;;;11.55;;
44486;SDS011;30191;50.908;6.962;2024-01-10T10:55:28;21.60;;;11.65;;
44486;SDS011;30191;50.908;6.962;2024-01-10T10:57:55;25.45;;;11.95;;
44486;SDS011;30191;50.908;6.962;2024-01-10T11:00:21;26.38;;;12.75;;
44486;SDS011;30191;50.908;6.962;2024-01-10T11:02:52;25.02;;;12.23;;
44486;SDS011;30191;50.908;6.962;2024-01-10T11:05:18;19.75;;;12.13;;
44486;SDS011;30191;50.908;6.962;2024-01-10T11:07:45;27.02;;;14.75;;
44486;SDS011;30191;50.908;6.962;2024-01-10T11:10:15;24.55;;;12.85;;
44486;SDS011;30191;50.908;6.962;2024-01-10T11:24:35;23.70;;;13.15;;
44486;SDS011;30191;50.908;6.962;2024-01-10T11:29:37;37.28;;;15.77;;
44486;SDS011;30191;50.908;6.962;2024-01-10T11:32:04;26.58;;;13.23;;
44486;SDS011;30191;50.908;6.962;2024-01-10T11:34:31;29.55;;;13.98;;
44486;SDS011;30191;50.908;6.962;2024-01-10T11:37:09;38.58;;;18.25;;
44486;SDS011;30191;50.908;6.962;2024-01-10T11:39:36;24.38;;;13.52;;
44486;SDS011;30191;50.908;6.962;2024-01-10T11:42:02;28.95;;;13.75;;
44486;SDS011;30191;50.908;6.962;2024-01-10T11:44:28;25.70;;;14.05;;
44486;SDS011;30191;50.908;6.962;2024-01-10T11:46:55;26.98;;;12.93;;
44486;SDS011;30191;50.908;6.962;2024-01-10T11:49:22;28.83;;;13.82;;
44486;SDS011;30191;50.908;6.962;2024-01-10T11:51:50;24.25;;;12.88;;
44486;SDS011;30191;50.908;6.962;2024-01-10T11:54:35;26.00;;;12.68;;
44486;SDS011;30191;50.908;6.962;2024-01-10T11:57:01;28.25;;;12.68;;
44486;SDS011;30191;50.908;6.962;2024-01-10T11:59:27;19.88;;;11.25;;
44486;SDS011;30191;50.908;6.962;2024-01-10T12:01:55;21.45;;;12.38;;
44486;SDS011;30191;50.908;6.962;2024-01-10T12:04:21;22.55;;;11.95;;
44486;SDS011;30191;50.908;6.962;2024-01-10T12:06:46;21.08;;;11.90;;
44486;SDS011;30191;50.908;6.962;2024-01-10T12:09:12;18.20;;;11.20;;
44486;SDS011;30191;50.908;6.962;2024-01-10T12:11:39;21.23;;;12.00;;
44486;SDS011;30191;50.908;6.962;2024-01-10T12:14:05;20.15;;;12.00;;
44486;SDS011;30191;50.908;6.962;2024-01-10T12:16:34;21.70;;;11.77;;
44486;SDS011;30191;50.908;6.962;2024-01-10T12:19:00;21.00;;;12.57;;
44486;SDS011;30191;50.908;6.962;2024-01-10T12:21:26;19.98;;;12.35;;
44486;SDS011;30191;50.908;6.962;2024-01-10T12:23:52;23.95;;;12.05;;
44486;SDS011;30191;50.908;6.962;2024-01-10T12:26:18;23.05;;;12.60;;
44486;SDS011;30191;50.908;6.962;2024-01-10T12:28:54;21.17;;;12.27;;
44486;SDS011;30191;50.908;6.962;2024-01-10T12:31:21;26.33;;;12.30;;
44486;SDS011;30191;50.908;6.962;2024-01-10T12:33:50;22.55;;;12.07;;
44486;SDS011;30191;50.908;6.962;2024-01-10T12:36:16;22.55;;;12.57;;
44486;SDS011;30191;50.908;6.962;2024-01-10T12:38:43;24.27;;;13.15;;
44486;SDS011;30191;50.908;6.962;2024-01-10T12:41:12;25.15;;;12.48;;
44486;SDS011;30191;50.908;6.962;2024-01-10T12:43:40;30.83;;;12.70;;
44486;SDS011;30191;50.908;6.962;2024-01-10T12:46:06;21.48;;;12.20;;
44486;SDS011;30191;50.908;6.962;2024-01-10T12:48:33;21.00;;;11.90;;
44486;SDS011;30191;50.908;6.962;2024-01-10T12:51:06;24.52;;;12.35;;
44486;SDS011;30191;50.908;6.962;2024-01-10T12:53:50;22.15;;;12.63;;
44486;SDS011;30191;50.908;6.962;2024-01-10T12:56:17;23.13;;;12.60;;
44486;SDS011;30191;50.908;6.962;2024-01-10T12:58:43;21.65;;;13.13;;
44486;SDS011;30191;50.908;6.962;2024-01-10T13:01:09;24.70;;;13.52;;
44486;SDS011;30191;50.908;6.962;2024-01-10T13:03:35;20.67;;;12.65;;
44486;SDS011;30191;50.908;6.962;2024-01-10T13:06:01;25.17;;;13.70;;
44486;SDS011;30191;50.908;6.962;2024-01-10T13:08:27;21.83;;;12.30;;
44486;SDS011;30191;50.908;6.962;2024-01-10T13:10:52;23.63;;;12.90;;
44486;SDS011;30191;50.908;6.962;2024-01-10T13:13:19;21.30;;;12.88;;
44486;SDS011;30191;50.908;6.962;2024-01-10T13:15:46;25.02;;;12.20;;
44486;SDS011;30191;50.908;6.962;2024-01-10T13:18:12;23.35;;;12.60;;
44486;SDS011;30191;50.908;6.962;2024-01-10T13:20:39;22.83;;;12.50;;
44486;SDS011;30191;50.908;6.962;2024-01-10T13:23:05;21.73;;;11.98;;
44486;SDS011;30191;50.908;6.962;2024-01-10T13:25:31;26.65;;;12.90;;
44486;SDS011;30191;50.908;6.962;2024-01-10T13:27:56;24.83;;;12.30;;
44486;SDS011;30191;50.908;6.962;2024-01-10T13:30:25;26.33;;;13.60;;
44486;SDS011;30191;50.908;6.962;2024-01-10T13:32:51;22.30;;;13.13;;
44486;SDS011;30191;50.908;6.962;2024-01-10T13:35:17;21.83;;;13.52;;
44486;SDS011;30191;50.908;6.962;2024-01-10T13:37:43;21.48;;;12.90;;
44486;SDS011;30191;50.908;6.962;2024-01-10T13:40:10;23.70;;;12.80;;
44486;SDS011;30191;50.908;6.962;2024-01-10T13:42:38;21.67;;;13.15;;
44486;SDS011;30191;50.908;6.962;2024-01-10T13:45:05;22.08;;;12.57;;
44486;SDS011;30191;50.908;6.962;2024-01-10T13:47:31;23.88;;;13.07;;
44486;SDS011;30191;50.908;6.962;2024-01-10T13:49:59;22.10;;;12.48;;
44486;SDS011;30191;50.908;6.962;2024-01-10T13:52:24;24.00;;;14.10;;
44486;SDS011;30191;50.908;6.962;2024-01-10T13:54:51;22.77;;;12.63;;
44486;SDS011;30191;50.908;6.962;2024-01-10T13:57:17;24.02;;;12.77;;
44486;SDS011;30191;50.908;6.962;2024-01-10T13:59:43;19.98;;;12.55;;
44486;SDS011;30191;50.908;6.962;2024-01-10T14:02:09;22.77;;;12.48;;
44486;SDS011;30191;50.908;6.962;2024-01-10T14:04:35;24.02;;;12.95;;
44486;SDS011;30191;50.908;6.962;2024-01-10T14:07:01;21.17;;;12.18;;
44486;SDS011;30191;50.908;6.962;2024-01-10T14:09:29;18.85;;;11.90;;
44486;SDS011;30191;50.908;6.962;2024-01-10T14:11:55;20.80;;;12.02;;
44486;SDS011;30191;50.908;6.962;2024-01-10T14:14:21;20.75;;;12.57;;
44486;SDS011;30191;50.908;6.962;2024-01-10T14:16:47;21.50;;;12.73;;
44486;SDS011;30191;50.908;6.962;2024-01-10T14:19:13;21.52;;;12.00;;
44486;SDS011;30191;50.908;6.962;2024-01-10T14:21:38;22.20;;;12.02;;
44486;SDS011;30191;50.908;6.962;2024-01-10T14:24:04;23.05;;;13.07;;
44486;SDS011;30191;50.908;6.962;2024-01-10T14:26:30;24.40;;;12.15;;
44486;SDS011;30191;50.908;6.962;2024-01-10T14:28:55;22.33;;;12.02;;
44486;SDS011;30191;50.908;6.962;2024-01-10T14:31:22;22.17;;;12.00;;
44486;SDS011;30191;50.908;6.962;2024-01-10T14:33:47;25.23;;;13.07;;
44486;SDS011;30191;50.908;6.962;2024-01-10T14:36:13;21.23;;;12.27;;
44486;SDS011;30191;50.908;6.962;2024-01-10T14:38:40;21.08;;;12.40;;
44486;SDS011;30191;50.908;6.962;2024-01-10T14:41:08;25.63;;;13.07;;